Time;durP1;ratioP1;P1;durP2;ratioP2;P2;SDS_P1;SDS_P2;PMS_P1;PMS_P2;Temp;Humidity;BMP_temperature;BMP_pressure;BME280_temperature;BME280_humidity;BME280_pressure;Samples;Min_cycle;Max_cycle;Signal;HPM_P1;HPM_P2
2022/08/09 00:01:29;;;;;;;;;;;;;;;21.52;60.59;100859.63;5427082;32;45093;-65
2022/08/09 00:04:51;;;;;;;;;;;;;;;21.97;58.48;100853.47;5416203;32;34476;-68
2022/08/09 00:08:13;;;;;;;;;;;;;;;22.43;57.02;100858.69;5444857;32;35103;-68
2022/08/09 00:11:33;;;;;;;;;;;;;;;22.89;55.30;100857.63;5428336;32;44998;-66
2022/08/09 00:14:56;;;;;;;;;;;;;;;22.07;57.33;100852.59;5435448;32;35237;-68
2022/08/09 00:18:01;;;;;;;;;;;;;;;21.31;60.90;100854.09;5411478;32;44712;-67
2022/08/09 00:21:12;;;;;;;;;;;;;;;21.66;59.82;100855.88;5419168;32;34594;-67
2022/08/09 00:24:14;;;;;;;;;;;;;;;21.39;60.98;100861.56;5439404;32;35389;-66
2022/08/09 00:27:20;;;;;;;;;;;;;;;21.60;60.40;100867.06;5418302;32;34032;-65
2022/08/09 00:30:22;;;;;;;;;;;;;;;21.26;61.50;100864.28;5438545;32;34037;-65
2022/08/09 00:33:27;;;;;;;;;;;;;;;21.37;61.17;100866.16;5420354;32;36578;-65
2022/08/09 00:36:49;;;;;;;;;;;;;;;21.72;59.97;100855.41;5436381;32;34858;-65
2022/08/09 00:39:52;;;;;;;;;;;;;;;21.53;60.83;100860.50;5434831;32;32695;-67
2022/08/09 00:43:14;;;;;;;;;;;;;;;21.86;59.64;100862.34;5429959;32;35061;-66
2022/08/09 00:46:36;;;;;;;;;;;;;;;22.44;56.71;100855.03;5444436;32;45638;-67
2022/08/09 00:49:57;;;;;;;;;;;;;;;22.61;56.05;100854.50;5424912;32;34863;-66
2022/08/09 00:52:59;;;;;;;;;;;;;;;21.44;60.05;100856.69;5428664;32;44928;-68
2022/08/09 00:56:11;;;;;;;;;;;;;;;22.68;56.24;100853.03;5441775;32;35273;-65
2022/08/09 00:59:14;;;;;;;;;;;;;;;21.29;60.85;100847.19;5415169;32;34610;-65
2022/08/09 01:02:32;;;;;;;;;;;;;;;21.21;61.81;100849.56;5444685;32;45157;-66
2022/08/09 01:05:35;;;;;;;;;;;;;;;21.26;61.96;100842.91;5423102;32;34920;-66
2022/08/09 01:08:58;;;;;;;;;;;;;;;21.32;61.99;100852.31;5424523;32;34700;-67
2022/08/09 01:12:37;;;;;;;;;;;;;;;22.48;57.96;100848.47;5431750;32;44867;-66
2022/08/09 01:15:42;;;;;;;;;;;;;;;21.12;62.24;100852.91;5347645;32;35628;-66
2022/08/09 01:18:53;;;;;;;;;;;;;;;21.21;63.18;100844.22;5415491;32;36178;-65
2022/08/09 01:22:23;;;;;;;;;;;;;;;21.34;61.81;100847.69;5428429;32;46624;-65
2022/08/09 01:25:31;;;;;;;;;;;;;;;22.07;59.00;100841.06;5422656;32;34766;-65
2022/08/09 01:28:43;;;;;;;;;;;;;;;21.43;60.93;100844.28;5432105;32;35827;-65
2022/08/09 01:31:46;;;;;;;;;;;;;;;22.11;58.58;100832.69;5416466;32;35616;-67
2022/08/09 01:35:20;;;;;;;;;;;;;;;21.27;61.43;100838.41;5415272;32;38011;-65
2022/08/09 01:38:41;;;;;;;;;;;;;;;20.75;63.17;100831.66;5434652;32;35027;-66
2022/08/09 01:41:47;;;;;;;;;;;;;;;21.06;61.74;100823.03;5421309;32;34341;-66
2022/08/09 01:44:56;;;;;;;;;;;;;;;20.47;64.36;100833.69;5443586;32;34202;-67
2022/08/09 01:47:59;;;;;;;;;;;;;;;21.06;62.74;100830.22;5412629;32;45179;-67
2022/08/09 01:51:06;;;;;;;;;;;;;;;21.05;62.78;100823.97;5415070;32;36356;-65
2022/08/09 01:54:10;;;;;;;;;;;;;;;20.68;63.86;100819.72;5432327;32;35104;-67
2022/08/09 01:57:36;;;;;;;;;;;;;;;20.58;64.34;100824.88;5409556;32;34307;-65
2022/08/09 02:00:46;;;;;;;;;;;;;;;20.64;64.35;100821.75;5445358;32;35138;-68
2022/08/09 02:03:51;;;;;;;;;;;;;;;20.72;63.81;100826.53;5418616;32;34509;-66
2022/08/09 02:07:10;;;;;;;;;;;;;;;20.46;64.39;100829.31;5421421;32;34337;-67
2022/08/09 02:10:33;;;;;;;;;;;;;;;20.46;64.78;100823.97;5442040;32;34707;-66
2022/08/09 02:13:36;;;;;;;;;;;;;;;21.16;62.39;100825.00;5419247;32;35345;-66
2022/08/09 02:16:41;;;;;;;;;;;;;;;20.93;64.22;100819.59;5426479;32;35357;-67
2022/08/09 02:20:03;;;;;;;;;;;;;;;20.77;65.02;100819.87;5422404;32;45181;-67
2022/08/09 02:23:07;;;;;;;;;;;;;;;20.79;64.24;100806.41;5421620;32;34629;-66
2022/08/09 02:26:10;;;;;;;;;;;;;;;21.04;63.78;100811.59;5439548;32;35758;-65
2022/08/09 02:29:28;;;;;;;;;;;;;;;21.30;62.68;100808.78;5419471;32;35314;-66
2022/08/09 02:32:33;;;;;;;;;;;;;;;21.66;60.74;100790.84;5439160;32;34848;-66
2022/08/09 02:35:35;;;;;;;;;;;;;;;21.24;63.17;100795.84;5406044;32;34295;-66
2022/08/09 02:38:57;;;;;;;;;;;;;;;21.65;63.13;100795.34;5410647;32;35915;-66
2022/08/09 02:42:00;;;;;;;;;;;;;;;21.54;61.67;100792.66;5431643;32;46129;-66
2022/08/09 02:45:04;;;;;;;;;;;;;;;21.44;61.52;100799.69;5424875;32;34825;-66
2022/08/09 02:48:08;;;;;;;;;;;;;;;21.68;60.33;100800.44;5445685;32;35317;-67
2022/08/09 02:51:30;;;;;;;;;;;;;;;21.17;62.32;100806.16;5419823;32;47120;-67
2022/08/09 02:54:41;;;;;;;;;;;;;;;21.62;61.31;100796.41;5419331;32;34595;-65
2022/08/09 02:57:55;;;;;;;;;;;;;;;21.98;59.46;100796.31;5427543;32;35064;-65
2022/08/09 03:01:17;;;;;;;;;;;;;;;21.58;61.07;100803.00;5422076;32;35379;-65
2022/08/09 03:04:30;;;;;;;;;;;;;;;21.57;61.35;100798.59;5437964;32;44496;-65
2022/08/09 03:07:33;;;;;;;;;;;;;;;21.41;62.00;100791.91;5417620;32;36701;-65
2022/08/09 03:10:38;;;;;;;;;;;;;;;21.03;62.73;100804.56;5417525;32;35049;-68
2022/08/09 03:13:44;;;;;;;;;;;;;;;20.84;63.30;100812.25;5427776;32;35489;-65
2022/08/09 03:17:02;;;;;;;;;;;;;;;20.38;65.35;100817.47;5414196;32;44414;-66
2022/08/09 03:20:06;;;;;;;;;;;;;;;20.33;65.84;100816.94;5435498;32;35384;-66
2022/08/09 03:23:12;;;;;;;;;;;;;;;20.17;66.32;100826.06;5424567;32;38038;-67
2022/08/09 03:26:25;;;;;;;;;;;;;;;20.65;64.95;100820.78;5424520;32;35121;-67
2022/08/09 03:29:32;;;;;;;;;;;;;;;20.22;66.11;100818.59;5434967;32;44507;-67
2022/08/09 03:32:43;;;;;;;;;;;;;;;20.50;64.37;100820.13;5410465;32;34809;-66
2022/08/09 03:35:47;;;;;;;;;;;;;;;20.65;64.06;100823.47;5436231;32;34347;-65
2022/08/09 03:39:09;;;;;;;;;;;;;;;20.65;64.56;100825.28;5417756;32;35430;-65
2022/08/09 03:42:11;;;;;;;;;;;;;;;20.26;65.82;100825.41;5423081;32;35065;-67
2022/08/09 03:45:13;;;;;;;;;;;;;;;20.26;65.43;100819.19;5435603;32;34835;-65
2022/08/09 03:48:16;;;;;;;;;;;;;;;20.55;65.29;100825.97;5418290;32;35415;-66
2022/08/09 03:51:30;;;;;;;;;;;;;;;21.57;61.08;100819.16;5434481;32;45000;-67
2022/08/09 03:54:52;;;;;;;;;;;;;;;21.48;60.17;100815.38;5420091;32;34566;-67
2022/08/09 03:57:55;;;;;;;;;;;;;;;20.65;63.65;100819.94;5415932;32;35113;-66
2022/08/09 04:01:10;;;;;;;;;;;;;;;20.60;64.79;100817.59;5439071;32;35014;-66
2022/08/09 04:04:13;;;;;;;;;;;;;;;20.17;66.06;100825.22;5419563;32;34644;-66
2022/08/09 04:07:16;;;;;;;;;;;;;;;20.34;65.47;100815.97;5425204;32;35665;-67
2022/08/09 04:10:21;;;;;;;;;;;;;;;20.90;63.44;100802.94;5418087;32;34630;-67
2022/08/09 04:13:30;;;;;;;;;;;;;;;20.38;65.77;100814.78;5433699;32;44567;-67
2022/08/09 04:16:52;;;;;;;;;;;;;;;20.53;64.58;100817.19;5404018;32;34500;-65
2022/08/09 04:19:58;;;;;;;;;;;;;;;20.97;62.96;100815.69;5422376;32;37827;-67
2022/08/09 04:23:04;;;;;;;;;;;;;;;20.88;63.79;100815.56;5437202;32;34725;-66
2022/08/09 04:26:11;;;;;;;;;;;;;;;20.43;65.38;100818.84;5421045;32;35095;-67
2022/08/09 04:29:13;;;;;;;;;;;;;;;20.78;63.95;100823.41;5438164;32;35307;-66
2022/08/09 04:32:16;;;;;;;;;;;;;;;20.90;63.04;100819.81;5434265;32;34975;-65
2022/08/09 04:35:32;;;;;;;;;;;;;;;21.33;62.16;100832.63;5421146;32;44660;-66
2022/08/09 04:38:34;;;;;;;;;;;;;;;22.01;59.59;100834.34;5443478;32;34883;-67
2022/08/09 04:41:38;;;;;;;;;;;;;;;22.78;56.24;100830.81;5422277;32;34861;-66
2022/08/09 04:44:44;;;;;;;;;;;;;;;22.82;56.28;100841.16;5445719;32;34874;-66
2022/08/09 04:47:50;;;;;;;;;;;;;;;22.14;58.69;100835.09;5428467;32;34617;-68
2022/08/09 04:51:02;;;;;;;;;;;;;;;22.51;57.73;100842.84;5428687;32;44501;-67
2022/08/09 04:54:04;;;;;;;;;;;;;;;23.90;54.17;100840.94;5433451;32;34749;-66
2022/08/09 04:57:06;;;;;;;;;;;;;;;24.37;51.77;100835.91;5426245;32;35803;-65
2022/08/09 05:00:13;;;;;;;;;;;;;;;24.91;49.53;100827.31;5429314;32;34603;-67
2022/08/09 05:03:17;;;;;;;;;;;;;;;25.23;49.10;100824.34;5418492;32;34654;-66
2022/08/09 05:06:39;;;;;;;;;;;;;;;24.50;50.99;100841.88;5444706;32;35275;-66
2022/08/09 05:09:44;;;;;;;;;;;;;;;24.60;50.63;100845.41;5428000;32;36828;-67
2022/08/09 05:12:50;;;;;;;;;;;;;;;24.73;49.89;100837.06;5427848;32;34787;-67
2022/08/09 05:15:52;;;;;;;;;;;;;;;24.93;49.80;100817.28;5436434;32;34033;-65
2022/08/09 05:18:57;;;;;;;;;;;;;;;26.60;45.58;100834.47;5424098;32;45833;-67
2022/08/09 05:22:01;;;;;;;;;;;;;;;26.51;45.21;100832.66;5440354;32;34636;-66
2022/08/09 05:25:03;;;;;;;;;;;;;;;25.37;47.85;100834.69;5417676;32;34183;-68
2022/08/09 05:28:05;;;;;;;;;;;;;;;26.54;45.85;100840.47;5426556;32;34070;-67
2022/08/09 05:31:07;;;;;;;;;;;;;;;26.65;45.45;100842.06;5433944;32;35216;-76
2022/08/09 05:34:10;;;;;;;;;;;;;;;27.81;42.34;100835.62;5429888;32;35323;-70
2022/08/09 05:37:17;;;;;;;;;;;;;;;26.89;43.73;100844.16;5447413;32;34342;-74
2022/08/09 05:40:19;;;;;;;;;;;;;;;26.92;43.29;100844.72;5413992;32;34208;-76
2022/08/09 05:43:23;;;;;;;;;;;;;;;26.85;44.05;100848.16;5428718;32;34178;-71
2022/08/09 05:46:32;;;;;;;;;;;;;;;27.87;41.75;100836.84;5426850;32;43693;-76
2022/08/09 05:49:34;;;;;;;;;;;;;;;26.70;44.31;100837.91;5419736;32;34353;-68
2022/08/09 05:52:56;;;;;;;;;;;;;;;27.52;41.96;100831.38;5435976;32;34454;-76
2022/08/09 05:55:58;;;;;;;;;;;;;;;27.68;40.63;100843.28;5436865;32;43093;-82
2022/08/09 05:59:02;;;;;;;;;;;;;;;28.34;39.29;100837.25;5445274;32;36080;-79
2022/08/09 06:02:04;;;;;;;;;;;;;;;28.47;39.30;100850.28;5434768;32;34101;-70
2022/08/09 06:05:06;;;;;;;;;;;;;;;28.18;39.44;100851.50;5439303;32;34692;-78
2022/08/09 06:08:10;;;;;;;;;;;;;;;29.55;36.88;100845.62;5424158;32;34395;-79
2022/08/09 06:11:12;;;;;;;;;;;;;;;27.47;41.25;100846.34;5422390;32;34718;-69
2022/08/09 06:14:18;;;;;;;;;;;;;;;27.78;40.31;100844.06;5450721;32;35238;-80
2022/08/09 06:17:20;;;;;;;;;;;;;;;28.46;38.30;100854.81;5397733;32;34175;-68
2022/08/09 06:20:22;;;;;;;;;;;;;;;28.25;39.05;100852.53;5435633;32;34729;-72
2022/08/09 06:23:25;;;;;;;;;;;;;;;30.07;35.43;100843.28;5420674;32;33975;-66
2022/08/09 06:26:47;;;;;;;;;;;;;;;29.49;36.32;100849.00;5421718;32;34690;-69
2022/08/09 06:29:50;;;;;;;;;;;;;;;29.58;36.28;100840.75;5448478;32;35113;-70
2022/08/09 06:33:09;;;;;;;;;;;;;;;28.49;38.61;100846.41;5435261;32;34175;-79
2022/08/09 06:36:31;;;;;;;;;;;;;;;29.65;36.02;100844.44;5438385;32;44758;-65
2022/08/09 06:39:33;;;;;;;;;;;;;;;30.78;33.89;100846.00;5429877;32;35620;-70
2022/08/09 06:42:55;;;;;;;;;;;;;;;30.03;35.02;100841.97;5426419;32;34471;-75
2022/08/09 06:45:57;;;;;;;;;;;;;;;29.86;35.08;100843.87;5448576;32;34263;-73
2022/08/09 06:49:08;;;;;;;;;;;;;;;30.55;34.14;100848.69;5429645;32;35686;-78
2022/08/09 06:52:11;;;;;;;;;;;;;;;29.66;35.37;100848.00;5442608;32;35400;-76
2022/08/09 06:55:17;;;;;;;;;;;;;;;30.00;35.25;100842.28;5425865;32;34535;-86
2022/08/09 06:58:24;;;;;;;;;;;;;;;30.42;34.32;100850.09;5426941;32;35149;-68
2022/08/09 07:01:46;;;;;;;;;;;;;;;29.56;35.66;100850.03;5447386;32;34611;-68
2022/08/09 07:05:01;;;;;;;;;;;;;;;30.29;33.92;100832.72;5431970;32;43447;-73
2022/08/09 07:08:03;;;;;;;;;;;;;;;29.89;34.37;100846.25;5424091;32;34886;-63
2022/08/09 07:11:05;;;;;;;;;;;;;;;30.77;33.33;100847.03;5420586;32;34284;-67
2022/08/09 07:14:07;;;;;;;;;;;;;;;30.98;32.96;100844.50;5437472;32;35328;-66
2022/08/09 07:17:09;;;;;;;;;;;;;;;31.33;31.95;100842.19;5430357;32;35377;-84
2022/08/09 07:20:13;;;;;;;;;;;;;;;30.82;33.44;100850.87;5438574;32;35415;-76
2022/08/09 07:23:16;;;;;;;;;;;;;;;32.34;30.73;100856.03;5441470;32;34326;-74
2022/08/09 07:26:23;;;;;;;;;;;;;;;31.34;32.37;100858.28;5419471;32;34096;-74
2022/08/09 07:29:25;;;;;;;;;;;;;;;33.85;28.32;100843.19;5437465;32;34245;-66
2022/08/09 07:32:38;;;;;;;;;;;;;;;33.26;29.42;100846.31;5432901;32;34274;-67
2022/08/09 07:35:41;;;;;;;;;;;;;;;32.89;29.88;100840.13;5429544;32;34272;-71
2022/08/09 07:38:56;;;;;;;;;;;;;;;32.74;30.48;100837.44;5454825;32;34890;-83
2022/08/09 07:42:03;;;;;;;;;;;;;;;33.49;28.59;100836.06;5436180;32;44415;-67
2022/08/09 07:45:07;;;;;;;;;;;;;;;31.41;32.62;100842.12;5434713;32;34275;-86
2022/08/09 07:48:29;;;;;;;;;;;;;;;31.41;32.45;100840.25;5437280;32;46454;-71
2022/08/09 07:51:32;;;;;;;;;;;;;;;32.85;29.87;100826.03;5433146;32;34610;-71
2022/08/09 07:54:54;;;;;;;;;;;;;;;32.58;30.78;100832.22;5437235;32;34571;-89
2022/08/09 07:57:58;;;;;;;;;;;;;;;33.84;28.23;100838.78;5426326;32;43189;-68
2022/08/09 08:01:00;;;;;;;;;;;;;;;32.86;29.92;100844.09;5443818;32;36201;-80
2022/08/09 08:04:12;;;;;;;;;;;;;;;31.39;31.69;100836.87;5431122;32;34799;-88
2022/08/09 08:07:14;;;;;;;;;;;;;;;30.87;32.36;100848.50;5433613;32;35864;-68
2022/08/09 08:10:38;;;;;;;;;;;;;;;31.37;31.53;100848.97;5446507;32;34644;-71
2022/08/09 08:14:02;;;;;;;;;;;;;;;32.90;29.17;100844.50;5437623;32;44997;-72
2022/08/09 08:17:07;;;;;;;;;;;;;;;33.17;28.98;100848.34;5427518;32;34224;-74
2022/08/09 08:20:26;;;;;;;;;;;;;;;32.17;29.60;100854.53;5425283;32;33348;-69
2022/08/09 08:23:33;;;;;;;;;;;;;;;31.97;30.72;100845.28;5430908;32;45904;-76
2022/08/09 08:26:36;;;;;;;;;;;;;;;32.66;29.31;100842.16;5434873;32;34324;-73
2022/08/09 08:29:56;;;;;;;;;;;;;;;33.55;27.96;100840.69;5423247;32;34040;-85
2022/08/09 08:33:05;;;;;;;;;;;;;;;33.49;28.42;100835.19;5447047;32;44684;-76
2022/08/09 08:36:12;;;;;;;;;;;;;;;33.64;28.02;100834.03;5434567;32;36206;-69
2022/08/09 08:39:29;;;;;;;;;;;;;;;33.04;28.81;100840.03;5433062;32;44410;-73
2022/08/09 08:42:44;;;;;;;;;;;;;;;37.05;23.26;100827.22;5443815;32;34316;-82
2022/08/09 08:45:49;;;;;;;;;;;;;;;33.52;27.96;100835.62;5422190;32;35128;-84
2022/08/09 08:48:54;;;;;;;;;;;;;;;32.62;29.40;100830.81;5435574;32;34487;-69
2022/08/09 08:51:59;;;;;;;;;;;;;;;32.05;30.65;100831.56;5411875;32;46000;-68
2022/08/09 08:55:05;;;;;;;;;;;;;;;31.02;32.17;100838.53;5424150;32;33275;-81
2022/08/09 08:58:08;;;;;;;;;;;;;;;33.14;29.11;100833.22;5443056;32;34195;-70
2022/08/09 09:01:11;;;;;;;;;;;;;;;35.23;25.91;100828.28;5428345;32;34307;-77
2022/08/09 09:04:25;;;;;;;;;;;;;;;34.71;26.69;100825.28;5435778;32;34824;-70
2022/08/09 09:07:29;;;;;;;;;;;;;;;33.88;27.32;100820.97;5434804;32;44218;-79
2022/08/09 09:10:37;;;;;;;;;;;;;;;35.62;25.14;100824.72;5423216;32;33070;-81
2022/08/09 09:13:40;;;;;;;;;;;;;;;34.43;26.83;100833.63;5416294;32;851830;-73
2022/08/09 09:17:00;;;;;;;;;;;;;;;32.12;30.29;100827.06;5415792;32;43318;-86
2022/08/09 09:20:10;;;;;;;;;;;;;;;32.60;29.54;100832.91;5445168;32;33992;-69
2022/08/09 09:23:16;;;;;;;;;;;;;;;31.92;30.74;100832.25;5434640;32;34228;-72
2022/08/09 09:26:21;;;;;;;;;;;;;;;34.51;26.70;100818.12;5446052;32;35526;-69
2022/08/09 09:29:34;;;;;;;;;;;;;;;34.63;26.60;100821.91;5429876;32;35056;-77
2022/08/09 09:33:03;;;;;;;;;;;;;;;35.88;24.74;100809.28;5433786;32;36018;-74
2022/08/09 09:36:18;;;;;;;;;;;;;;;34.48;25.75;100814.75;5443104;32;34041;-68
2022/08/09 09:39:23;;;;;;;;;;;;;;;36.53;23.59;100812.81;5431808;32;34885;-82
2022/08/09 09:42:53;;;;;;;;;;;;;;;36.21;23.75;100814.66;5428210;32;34269;-79
2022/08/09 09:45:56;;;;;;;;;;;;;;;35.83;24.42;100812.66;5433635;32;34256;-70
2022/08/09 09:49:19;;;;;;;;;;;;;;;35.40;24.92;100817.78;5428558;32;35727;-71
2022/08/09 09:52:48;;;;;;;;;;;;;;;37.55;22.32;100816.22;5445456;32;36561;-71
2022/08/09 09:56:00;;;;;;;;;;;;;;;35.95;23.83;100821.06;5439275;32;34308;-82
2022/08/09 09:59:09;;;;;;;;;;;;;;;35.65;23.71;100816.06;5423605;32;43377;-73
2022/08/09 10:02:17;;;;;;;;;;;;;;;36.96;22.43;100821.16;5447646;32;35962;-74
2022/08/09 10:05:22;;;;;;;;;;;;;;;36.04;23.78;100809.66;5430688;32;34179;-74
2022/08/09 10:08:47;;;;;;;;;;;;;;;33.90;26.84;100813.44;5435523;32;35811;-76
2022/08/09 10:12:01;;;;;;;;;;;;;;;36.03;24.12;100788.00;5429121;32;43615;-69
2022/08/09 10:15:15;;;;;;;;;;;;;;;36.24;23.86;100803.25;5427647;32;34051;-84
2022/08/09 10:18:50;;;;;;;;;;;;;;;35.98;23.80;100802.31;5417023;32;36122;-74
2022/08/09 10:21:55;;;;;;;;;;;;;;;36.30;23.74;100805.97;5413351;32;33974;-77
2022/08/09 10:25:02;;;;;;;;;;;;;;;35.45;24.48;100797.00;5433462;32;43020;-72
2022/08/09 10:28:13;;;;;;;;;;;;;;;36.56;23.24;100783.09;5443889;32;34451;-71
2022/08/09 10:31:19;;;;;;;;;;;;;;;35.90;23.92;100788.88;5423303;32;35858;-73
2022/08/09 10:34:41;;;;;;;;;;;;;;;35.59;24.29;100788.75;5435340;32;34506;-74
2022/08/09 10:37:44;;;;;;;;;;;;;;;38.33;20.99;100777.13;5420725;32;34218;-79
2022/08/09 10:40:47;;;;;;;;;;;;;;;36.73;22.37;100777.09;5435516;32;34168;-67
2022/08/09 10:43:51;;;;;;;;;;;;;;;37.03;22.17;100783.59;5447918;32;34444;-68
2022/08/09 10:47:17;;;;;;;;;;;;;;;36.48;22.76;100780.63;5434596;32;45105;-84
2022/08/09 10:54:06;;;;;;;;;;;;;;;34.62;25.65;100777.41;5444486;32;46087;-69
2022/08/09 10:57:13;;;;;;;;;;;;;;;34.54;25.59;100779.50;5451567;32;34790;-69
2022/08/09 11:00:30;;;;;;;;;;;;;;;32.53;28.24;100789.28;5449607;32;34407;-84
2022/08/09 11:03:32;;;;;;;;;;;;;;;32.12;29.18;100774.56;5421501;32;45608;-70
2022/08/09 11:06:57;;;;;;;;;;;;;;;32.54;28.63;100788.25;5443262;32;33566;-81
2022/08/09 11:10:01;;;;;;;;;;;;;;;35.19;24.81;100773.25;5434518;32;44585;-78
2022/08/09 11:13:11;;;;;;;;;;;;;;;36.39;23.27;100776.47;5432098;32;34453;-76
2022/08/09 11:16:37;;;;;;;;;;;;;;;35.39;24.43;100754.09;5429224;32;44894;-79
2022/08/09 11:19:52;;;;;;;;;;;;;;;35.71;24.37;100757.81;5422515;32;34249;-77
2022/08/09 11:23:13;;;;;;;;;;;;;;;35.28;24.86;100754.72;5436639;32;34087;-76
2022/08/09 11:26:36;;;;;;;;;;;;;;;34.16;26.20;100756.31;5439230;32;35465;-81
2022/08/09 11:30:11;;;;;;;;;;;;;;;34.08;26.23;100756.50;5432771;32;34478;-70
2022/08/09 11:33:36;;;;;;;;;;;;;;;36.51;23.42;100755.53;5426648;32;36279;-73
2022/08/09 11:36:40;;;;;;;;;;;;;;;36.52;22.99;100746.28;5437911;32;34333;-80
2022/08/09 11:40:02;;;;;;;;;;;;;;;37.90;20.98;100745.16;5428392;32;35612;-77
2022/08/09 11:43:04;;;;;;;;;;;;;;;35.44;24.12;100737.09;5443964;32;44560;-76
2022/08/09 11:46:06;;;;;;;;;;;;;;;34.98;24.76;100748.91;5427329;32;35412;-79
2022/08/09 11:49:10;;;;;;;;;;;;;;;35.03;24.81;100746.34;5440646;32;35814;-80
2022/08/09 11:52:18;;;;;;;;;;;;;;;36.35;22.99;100747.84;5426256;32;35698;-76
2022/08/09 11:55:41;;;;;;;;;;;;;;;37.22;21.83;100740.62;5424157;32;36535;-67
2022/08/09 11:59:02;;;;;;;;;;;;;;;36.76;22.32;100735.56;5441336;32;44701;-84
2022/08/09 12:02:10;;;;;;;;;;;;;;;36.28;23.07;100739.66;5434042;32;34308;-85
2022/08/09 12:05:34;;;;;;;;;;;;;;;35.46;24.22;100730.34;5435103;32;45217;-89
2022/08/09 12:08:48;;;;;;;;;;;;;;;35.64;23.88;100726.91;5442733;32;35596;-79
2022/08/09 12:12:04;;;;;;;;;;;;;;;35.03;24.56;100740.06;5434241;32;33310;-70
2022/08/09 12:15:22;;;;;;;;;;;;;;;32.53;27.93;100736.75;5442111;32;44459;-71
2022/08/09 12:18:45;;;;;;;;;;;;;;;33.33;27.22;100736.34;5421934;32;34755;-78
2022/08/09 12:21:58;;;;;;;;;;;;;;;31.99;29.36;100745.34;5435377;32;33548;-76
2022/08/09 12:25:14;;;;;;;;;;;;;;;32.75;28.09;100724.81;5445998;32;44636;-71
2022/08/09 12:28:20;;;;;;;;;;;;;;;32.47;28.50;100734.81;5435384;32;34297;-77
2022/08/09 12:31:42;;;;;;;;;;;;;;;31.65;29.75;100724.19;5423493;32;34680;-76
2022/08/09 12:35:04;;;;;;;;;;;;;;;31.88;29.66;100727.66;5443253;32;44368;-71
2022/08/09 12:38:24;;;;;;;;;;;;;;;32.87;27.77;100716.97;5433199;32;34198;-74
2022/08/09 12:41:39;;;;;;;;;;;;;;;32.87;27.98;100716.97;5438131;32;33809;-77
2022/08/09 12:44:41;;;;;;;;;;;;;;;33.80;26.75;100715.66;5436709;32;35505;-77
2022/08/09 12:47:55;;;;;;;;;;;;;;;33.03;27.65;100715.84;5433506;32;34126;-85
2022/08/09 12:50:57;;;;;;;;;;;;;;;33.98;26.30;100706.94;5424884;32;34284;-78
2022/08/09 12:54:01;;;;;;;;;;;;;;;33.85;26.12;100701.41;5422807;32;48389;-68
2022/08/09 12:57:04;;;;;;;;;;;;;;;32.38;28.20;100711.50;5442138;32;35607;-77
2022/08/09 13:00:24;;;;;;;;;;;;;;;31.86;29.20;100712.56;5419462;32;35086;-71
2022/08/09 13:03:27;;;;;;;;;;;;;;;33.22;27.30;100714.28;5446509;32;34095;-73
2022/08/09 13:06:50;;;;;;;;;;;;;;;33.68;26.14;100706.38;5442316;32;35126;-75
2022/08/09 13:10:01;;;;;;;;;;;;;;;31.84;28.91;100712.78;5421354;32;34808;-73
2022/08/09 13:13:03;;;;;;;;;;;;;;;32.31;28.27;100705.94;5445178;32;44556;-75
2022/08/09 13:16:14;;;;;;;;;;;;;;;32.79;27.67;100704.34;5417863;32;36176;-79
2022/08/09 13:19:27;;;;;;;;;;;;;;;31.56;29.59;100715.31;5445926;32;34155;-70
2022/08/09 13:22:49;;;;;;;;;;;;;;;32.12;28.27;100703.88;5429024;32;34905;-71
2022/08/09 13:26:05;;;;;;;;;;;;;;;30.96;30.15;100708.13;5434337;32;44643;-76
2022/08/09 13:29:14;;;;;;;;;;;;;;;30.77;30.61;100705.94;5446427;32;34780;-77
2022/08/09 13:32:16;;;;;;;;;;;;;;;30.83;30.43;100706.06;5422511;32;35369;-75
2022/08/09 13:35:30;;;;;;;;;;;;;;;30.25;31.31;100709.38;5442689;32;46756;-80
2022/08/09 13:38:36;;;;;;;;;;;;;;;31.32;29.53;100696.59;5438836;32;35434;-76
2022/08/09 13:41:59;;;;;;;;;;;;;;;30.33;31.10;100712.03;5416933;32;45958;-69
2022/08/09 13:45:03;;;;;;;;;;;;;;;31.41;29.26;100701.72;5443017;32;35615;-71
2022/08/09 13:48:13;;;;;;;;;;;;;;;31.85;28.95;100708.16;5417769;32;33950;-72
2022/08/09 13:51:15;;;;;;;;;;;;;;;31.66;29.45;100699.53;5445550;32;34199;-71
2022/08/09 13:54:18;;;;;;;;;;;;;;;32.43;28.39;100706.31;5436393;32;36778;-69
2022/08/09 13:57:20;;;;;;;;;;;;;;;31.85;29.11;100695.41;5432930;32;34474;-71
2022/08/09 14:00:40;;;;;;;;;;;;;;;31.45;29.99;100691.34;5441760;32;35689;-83
2022/08/09 14:03:53;;;;;;;;;;;;;;;31.45;29.96;100702.22;5422124;32;34079;-77
2022/08/09 14:07:05;;;;;;;;;;;;;;;32.10;29.10;100701.34;5432192;32;44621;-71
2022/08/09 14:10:07;;;;;;;;;;;;;;;32.27;28.65;100696.50;5415939;32;35772;-74
2022/08/09 14:13:18;;;;;;;;;;;;;;;32.18;28.85;100701.22;5427950;32;34165;-72
2022/08/09 14:16:40;;;;;;;;;;;;;;;31.31;30.07;100700.34;5406616;32;34628;-69
2022/08/09 14:19:42;;;;;;;;;;;;;;;32.02;28.94;100705.03;5406831;32;35471;-70
2022/08/09 14:22:45;;;;;;;;;;;;;;;30.73;30.69;100700.06;5430642;32;34915;-72
2022/08/09 14:25:47;;;;;;;;;;;;;;;30.96;30.47;100700.84;5426957;32;34943;-70
2022/08/09 14:28:51;;;;;;;;;;;;;;;31.27;30.05;100698.00;5419877;32;35693;-72
2022/08/09 14:31:53;;;;;;;;;;;;;;;31.75;29.33;100694.84;5435777;32;35383;-71
2022/08/09 14:34:55;;;;;;;;;;;;;;;31.15;30.19;100693.19;5415356;32;34547;-72
2022/08/09 14:37:57;;;;;;;;;;;;;;;31.26;30.02;100695.47;5434708;32;44752;-71
2022/08/09 14:41:05;;;;;;;;;;;;;;;30.66;30.67;100691.78;5415362;32;34046;-72
2022/08/09 14:44:27;;;;;;;;;;;;;;;31.31;29.73;100697.63;5421101;32;35025;-71
2022/08/09 14:47:48;;;;;;;;;;;;;;;31.36;29.64;100696.00;5435001;32;34404;-70
2022/08/09 14:51:00;;;;;;;;;;;;;;;31.35;29.65;100696.22;5418434;32;44617;-71
2022/08/09 14:54:02;;;;;;;;;;;;;;;31.85;29.26;100692.69;5432107;32;35297;-72
2022/08/09 14:57:04;;;;;;;;;;;;;;;31.85;28.89;100686.44;5419913;32;34433;-71
2022/08/09 15:00:07;;;;;;;;;;;;;;;31.90;28.94;100686.69;5438951;32;34702;-71
2022/08/09 15:03:10;;;;;;;;;;;;;;;31.72;29.35;100685.19;5425785;32;35746;-73
2022/08/09 15:06:17;;;;;;;;;;;;;;;31.08;30.05;100676.78;5418729;32;34797;-71
2022/08/09 15:09:20;;;;;;;;;;;;;;;31.35;29.61;100680.75;5444201;32;34717;-71
2022/08/09 15:12:42;;;;;;;;;;;;;;;31.66;28.96;100682.41;5420849;32;34642;-70
2022/08/09 15:15:48;;;;;;;;;;;;;;;31.75;28.41;100675.81;5424915;32;35047;-73
2022/08/09 15:18:50;;;;;;;;;;;;;;;31.30;29.09;100675.06;5411179;32;34660;-71
2022/08/09 15:21:53;;;;;;;;;;;;;;;31.33;29.18;100674.69;5418285;32;35064;-71
2022/08/09 15:25:03;;;;;;;;;;;;;;;31.79;28.62;100675.28;5440307;32;43355;-71
2022/08/09 15:28:05;;;;;;;;;;;;;;;30.93;29.85;100673.25;5423551;32;34626;-71
2022/08/09 15:31:27;;;;;;;;;;;;;;;31.66;28.62;100674.25;5436199;32;35711;-70
2022/08/09 15:34:43;;;;;;;;;;;;;;;31.84;28.30;100671.16;5417527;32;35921;-73
2022/08/09 15:37:47;;;;;;;;;;;;;;;31.89;27.95;100680.44;5422551;32;34204;-72
2022/08/09 15:41:09;;;;;;;;;;;;;;;32.17;27.47;100663.34;5433649;32;35147;-71
2022/08/09 15:44:23;;;;;;;;;;;;;;;32.18;27.66;100682.19;5420801;32;35962;-72
2022/08/09 15:47:24;;;;;;;;;;;;;;;31.82;28.34;100684.94;5436089;32;34397;-71
2022/08/09 15:50:47;;;;;;;;;;;;;;;30.84;30.28;100674.34;5421184;32;34973;-72
2022/08/09 15:53:49;;;;;;;;;;;;;;;30.88;30.47;100679.22;5420000;32;34678;-72
2022/08/09 15:57:11;;;;;;;;;;;;;;;31.41;29.58;100676.44;5437770;32;35341;-71
2022/08/09 16:00:17;;;;;;;;;;;;;;;30.62;30.79;100676.03;5424061;32;35505;-72
2022/08/09 16:03:26;;;;;;;;;;;;;;;31.07;30.06;100666.97;5441228;32;34768;-71
2022/08/09 16:06:39;;;;;;;;;;;;;;;29.55;32.44;100675.03;5423019;32;35324;-71
2022/08/09 16:09:50;;;;;;;;;;;;;;;31.04;30.10;100664.63;5422607;32;34539;-72
2022/08/09 16:13:06;;;;;;;;;;;;;;;30.84;30.45;100679.75;5438582;32;45210;-71
2022/08/09 16:16:22;;;;;;;;;;;;;;;30.89;30.04;100663.78;5402840;32;34217;-72
2022/08/09 16:19:29;;;;;;;;;;;;;;;31.31;29.55;100668.59;5432143;32;45135;-71